createdAt,value
2023-01-21T00:00:54.035Z,-2.42
2023-01-21T00:03:22.182Z,-2.45
2023-01-21T00:05:49.833Z,-2.47
2023-01-21T00:08:17.550Z,-2.49
2023-01-21T00:10:45.246Z,-2.52
2023-01-21T00:13:12.823Z,-2.56
2023-01-21T00:15:40.771Z,-2.62
2023-01-21T00:18:08.404Z,-2.66
2023-01-21T00:20:36.011Z,-2.69
2023-01-21T00:23:04.082Z,-2.69
2023-01-21T00:25:31.981Z,-2.67
2023-01-21T00:28:00.466Z,-2.66
2023-01-21T00:30:28.122Z,-2.67
2023-01-21T00:32:55.732Z,-2.70
2023-01-21T00:35:23.347Z,-2.72
2023-01-21T00:37:51.016Z,-2.73
2023-01-21T00:40:19.222Z,-2.75
2023-01-21T00:42:46.925Z,-2.76
2023-01-21T00:45:14.556Z,-2.77
2023-01-21T00:47:43.229Z,-2.79
2023-01-21T00:50:10.842Z,-2.82
2023-01-21T00:52:39.141Z,-2.82
2023-01-21T00:55:06.727Z,-2.84
2023-01-21T00:57:34.421Z,-2.87
2023-01-21T01:00:02.091Z,-2.89
2023-01-21T01:02:29.925Z,-2.90
2023-01-21T01:04:57.901Z,-2.89
2023-01-21T01:07:25.575Z,-2.91
2023-01-21T01:09:53.439Z,-2.90
2023-01-21T01:12:21.065Z,-2.92
2023-01-21T01:14:48.674Z,-2.93
2023-01-21T01:17:16.310Z,-2.95
2023-01-21T01:19:43.858Z,-2.98
2023-01-21T01:22:11.493Z,-3.00
2023-01-21T01:24:39.127Z,-3.00
2023-01-21T01:27:06.899Z,-3.01
2023-01-21T01:29:34.910Z,-3.04
2023-01-21T01:32:02.816Z,-3.05
2023-01-21T01:34:30.365Z,-3.06
2023-01-21T01:36:58.237Z,-3.09
2023-01-21T01:39:25.830Z,-3.10
2023-01-21T01:41:53.848Z,-3.10
2023-01-21T01:44:21.539Z,-3.11
2023-01-21T01:46:49.086Z,-3.12
2023-01-21T01:49:16.843Z,-3.11
2023-01-21T01:51:44.442Z,-3.10
2023-01-21T01:54:12.452Z,-3.11
2023-01-21T01:56:40.092Z,-3.10
2023-01-21T01:59:07.711Z,-3.11
2023-01-21T02:01:35.535Z,-3.13
2023-01-21T02:04:03.111Z,-3.15
2023-01-21T02:06:31.078Z,-3.16
2023-01-21T02:08:58.811Z,-3.17
2023-01-21T02:11:26.403Z,-3.17
2023-01-21T02:13:55.615Z,-3.17
2023-01-21T02:16:23.233Z,-3.19
2023-01-21T02:18:51.330Z,-3.19
2023-01-21T02:21:19.011Z,-3.21
2023-01-21T02:23:46.580Z,-3.26
2023-01-21T02:26:14.221Z,-3.32
2023-01-21T02:28:41.849Z,-3.39
2023-01-21T02:31:09.848Z,-3.46
2023-01-21T02:33:37.492Z,-3.51
2023-01-21T02:36:05.369Z,-3.55
2023-01-21T02:38:33.133Z,-3.56
2023-01-21T02:41:00.698Z,-3.56
2023-01-21T02:43:28.309Z,-3.56
2023-01-21T02:45:55.855Z,-3.57
2023-01-21T02:48:23.418Z,-3.55
2023-01-21T02:50:51.446Z,-3.52
2023-01-21T02:53:19.066Z,-3.48
2023-01-21T02:55:47.037Z,-3.43
2023-01-21T02:58:14.958Z,-3.42
2023-01-21T03:00:42.529Z,-3.41
2023-01-21T03:03:10.321Z,-3.42
2023-01-21T03:05:37.952Z,-3.39
2023-01-21T03:08:05.919Z,-3.42
2023-01-21T03:10:33.480Z,-3.44
2023-01-21T03:13:01.101Z,-3.47
2023-01-21T03:15:46.250Z,-3.47
2023-01-21T03:18:14.197Z,-3.50
2023-01-21T03:20:41.772Z,-3.49
2023-01-21T03:23:09.343Z,-3.47
2023-01-21T03:25:36.941Z,-3.45
2023-01-21T03:28:04.514Z,-3.48
2023-01-21T03:30:32.307Z,-3.48
2023-01-21T03:32:59.949Z,-3.50
2023-01-21T03:35:27.508Z,-3.52
2023-01-21T03:37:55.093Z,-3.54
2023-01-21T03:40:23.124Z,-3.55
2023-01-21T03:42:53.181Z,-3.56
2023-01-21T03:45:20.974Z,-3.56
2023-01-21T03:47:50.555Z,-3.56
2023-01-21T03:50:18.443Z,-3.58
2023-01-21T03:52:46.356Z,-3.61
2023-01-21T03:55:14.521Z,-3.64
2023-01-21T03:57:42.107Z,-3.66
2023-01-21T04:00:09.688Z,-3.69
2023-01-21T04:02:37.812Z,-3.72
2023-01-21T04:05:05.375Z,-3.75
2023-01-21T04:07:33.303Z,-3.77
2023-01-21T04:10:01.013Z,-3.77
2023-01-21T04:12:28.658Z,-3.79
2023-01-21T04:14:56.333Z,-3.79
2023-01-21T04:17:23.938Z,-3.81
2023-01-21T04:19:52.127Z,-3.83
2023-01-21T04:22:20.781Z,-3.83
2023-01-21T04:24:48.419Z,-3.81
2023-01-21T04:27:16.011Z,-3.81
2023-01-21T04:29:43.612Z,-3.78
2023-01-21T04:32:11.753Z,-3.78
2023-01-21T04:34:39.318Z,-3.80
2023-01-21T04:37:06.918Z,-3.82
2023-01-21T04:39:34.546Z,-3.84
2023-01-21T04:42:02.125Z,-3.87
2023-01-21T04:44:30.047Z,-3.88
2023-01-21T04:46:58.016Z,-3.91
2023-01-21T04:49:25.593Z,-3.92
2023-01-21T04:51:53.204Z,-3.90
2023-01-21T04:54:20.830Z,-3.89
2023-01-21T04:56:48.781Z,-3.90
2023-01-21T04:59:16.374Z,-3.91
2023-01-21T05:01:44.025Z,-3.90
2023-01-21T05:04:11.620Z,-3.90
2023-01-21T05:06:39.276Z,-3.85
2023-01-21T05:09:08.315Z,-3.86
2023-01-21T05:11:35.922Z,-3.88
2023-01-21T05:14:03.534Z,-3.92
2023-01-21T05:16:31.310Z,-3.96
2023-01-21T05:18:58.938Z,-4.00
2023-01-21T05:21:27.122Z,-4.02
2023-01-21T05:23:54.719Z,-4.01
2023-01-21T05:26:22.336Z,-4.01
2023-01-21T05:28:49.907Z,-4.00
2023-01-21T05:31:18.046Z,-3.98
2023-01-21T05:33:47.292Z,-3.96
2023-01-21T05:36:14.917Z,-3.96
2023-01-21T05:38:42.560Z,-3.96
2023-01-21T05:41:10.149Z,-3.95
2023-01-21T05:43:37.755Z,-3.94
2023-01-21T05:46:05.753Z,-3.96
2023-01-21T05:48:33.363Z,-3.97
2023-01-21T05:51:00.977Z,-4.00
2023-01-21T05:53:28.663Z,-4.03
2023-01-21T05:55:56.258Z,-4.05
2023-01-21T05:58:24.187Z,-4.08
2023-01-21T06:00:51.816Z,-4.10
2023-01-21T06:03:19.440Z,-4.12
2023-01-21T06:05:47.100Z,-4.14
2023-01-21T06:08:14.744Z,-4.16
2023-01-21T06:10:42.681Z,-4.17
2023-01-21T06:13:10.305Z,-4.19
2023-01-21T06:15:38.029Z,-4.20
2023-01-21T06:18:05.657Z,-4.15
2023-01-21T06:20:33.231Z,-4.07
2023-01-21T06:23:01.195Z,-3.97
2023-01-21T06:25:28.830Z,-3.85
2023-01-21T06:27:56.455Z,-3.75
2023-01-21T06:30:24.094Z,-3.67
2023-01-21T06:32:51.711Z,-3.59
2023-01-21T06:35:21.517Z,-3.51
2023-01-21T06:37:49.173Z,-3.41
2023-01-21T06:40:17.196Z,-3.32
2023-01-21T06:42:44.963Z,-3.25
2023-01-21T06:45:12.610Z,-3.17
2023-01-21T06:47:40.945Z,-3.12
2023-01-21T06:50:08.567Z,-3.06
2023-01-21T06:52:36.188Z,-2.98
2023-01-21T06:55:03.764Z,-2.94
2023-01-21T06:57:31.896Z,-2.90
2023-01-21T06:59:59.689Z,-2.86
2023-01-21T07:02:27.289Z,-2.80
2023-01-21T07:04:58.910Z,-2.73
2023-01-21T07:07:26.783Z,-2.66
2023-01-21T07:09:54.403Z,-2.61
2023-01-21T07:12:22.297Z,-2.54
2023-01-21T07:14:49.933Z,-2.50
2023-01-21T07:17:17.753Z,-2.46
2023-01-21T07:19:45.755Z,-2.43
2023-01-21T07:22:13.445Z,-2.40
2023-01-21T07:24:41.413Z,-2.35
2023-01-21T07:27:09.527Z,-2.31
2023-01-21T07:29:37.211Z,-2.30
2023-01-21T07:32:04.846Z,-2.27
2023-01-21T07:34:32.519Z,-2.26
2023-01-21T07:37:01.144Z,-2.23
2023-01-21T07:39:28.793Z,-2.18
2023-01-21T07:41:56.925Z,-2.14
2023-01-21T07:44:24.590Z,-2.09
2023-01-21T07:46:52.252Z,-2.06
2023-01-21T07:49:20.114Z,-2.02
2023-01-21T07:51:47.848Z,-1.98
2023-01-21T07:54:15.613Z,-1.94
2023-01-21T07:56:43.270Z,-1.92
2023-01-21T07:59:11.007Z,-1.88
2023-01-21T08:01:39.249Z,-1.84
2023-01-21T08:04:09.951Z,-1.79
2023-01-21T08:06:41.573Z,-1.75
2023-01-21T08:09:09.263Z,-1.72
2023-01-21T08:11:36.992Z,-1.68
2023-01-21T08:14:06.108Z,-1.64
2023-01-21T08:16:33.862Z,-1.60
2023-01-21T08:19:01.513Z,-1.58
2023-01-21T08:21:29.252Z,-1.56
2023-01-21T08:23:56.940Z,-1.52
2023-01-21T08:26:27.016Z,-1.48
2023-01-21T08:28:54.700Z,-1.44
2023-01-21T08:31:22.487Z,-1.40
2023-01-21T08:33:50.212Z,-1.36
2023-01-21T08:36:18.018Z,-1.29
2023-01-21T08:38:48.616Z,-1.23
2023-01-21T08:41:16.735Z,-1.13
2023-01-21T08:43:44.642Z,-1.05
2023-01-21T08:46:12.281Z,-0.97
2023-01-21T08:48:40.548Z,-0.94
2023-01-21T08:51:08.905Z,-0.88
2023-01-21T08:53:36.713Z,-0.83
2023-01-21T08:56:04.594Z,-0.78
2023-01-21T08:58:32.412Z,-0.72
2023-01-21T09:01:00.239Z,-0.65
2023-01-21T09:03:30.230Z,-0.59
2023-01-21T09:05:58.181Z,-0.53
2023-01-21T09:08:26.023Z,-0.47
2023-01-21T09:11:03.707Z,-0.40
2023-01-21T09:13:31.686Z,-0.32
2023-01-21T09:15:59.378Z,-0.27
2023-01-21T09:18:27.175Z,-0.22
2023-01-21T09:20:54.883Z,-0.16
2023-01-21T09:23:28.624Z,-0.09
2023-01-21T09:25:57.231Z,-0.03
2023-01-21T09:28:25.004Z,0.01
2023-01-21T09:30:52.979Z,0.04
2023-01-21T09:33:21.171Z,0.07
2023-01-21T09:35:48.930Z,0.11
2023-01-21T09:38:17.923Z,0.12
2023-01-21T09:40:46.157Z,0.14
2023-01-21T09:43:13.989Z,0.17
2023-01-21T09:45:41.912Z,0.19
2023-01-21T09:48:09.726Z,0.22
2023-01-21T09:50:38.337Z,0.25
2023-01-21T09:53:06.210Z,0.29
2023-01-21T09:55:34.374Z,0.33
2023-01-21T09:58:02.130Z,0.36
2023-01-21T10:00:30.012Z,0.39
2023-01-21T10:02:58.126Z,0.43
2023-01-21T10:05:25.992Z,0.47
2023-01-21T10:07:53.808Z,0.49
2023-01-21T10:10:21.782Z,0.53
2023-01-21T10:12:49.653Z,0.55
2023-01-21T10:15:18.197Z,0.60
2023-01-21T10:17:47.773Z,0.68
2023-01-21T10:20:15.592Z,0.81
2023-01-21T10:22:43.459Z,0.94
2023-01-21T10:25:11.254Z,1.05
2023-01-21T10:27:39.570Z,1.16
2023-01-21T10:30:07.779Z,1.26
2023-01-21T10:32:35.782Z,1.31
2023-01-21T10:35:03.728Z,1.35
2023-01-21T10:37:31.830Z,1.40
2023-01-21T10:40:02.324Z,1.42
2023-01-21T10:42:30.278Z,1.45
2023-01-21T10:44:58.154Z,1.51
2023-01-21T10:47:26.225Z,1.58
2023-01-21T10:49:54.550Z,1.65
2023-01-21T10:52:23.656Z,1.68
2023-01-21T10:54:51.733Z,1.70
2023-01-21T10:57:19.672Z,1.70
2023-01-21T10:59:47.623Z,1.70
2023-01-21T11:02:16.364Z,1.72
2023-01-21T11:04:45.231Z,1.74
2023-01-21T11:07:13.155Z,1.76
2023-01-21T11:09:41.043Z,1.75
2023-01-21T11:12:08.847Z,1.73
2023-01-21T11:14:36.993Z,1.73
2023-01-21T11:17:05.697Z,1.74
2023-01-21T11:19:33.532Z,1.75
2023-01-21T11:22:01.801Z,1.77
2023-01-21T11:24:29.885Z,1.79
2023-01-21T11:26:57.830Z,1.76
2023-01-21T11:29:26.298Z,1.73
2023-01-21T11:31:54.387Z,1.69
2023-01-21T11:34:22.299Z,1.67
2023-01-21T11:36:50.282Z,1.68
2023-01-21T11:39:18.340Z,1.68
2023-01-21T11:41:46.994Z,1.69
2023-01-21T11:44:15.262Z,1.68
2023-01-21T11:46:43.546Z,1.67
2023-01-21T11:49:11.578Z,1.68
2023-01-21T11:51:39.735Z,1.70
2023-01-21T11:54:08.302Z,1.72
2023-01-21T11:56:36.213Z,1.75
2023-01-21T11:59:04.312Z,1.77
2023-01-21T12:01:32.188Z,1.80
2023-01-21T12:04:01.158Z,1.85
2023-01-21T12:06:31.412Z,1.87
2023-01-21T12:08:59.787Z,1.91
2023-01-21T12:11:27.834Z,1.94
2023-01-21T12:13:55.861Z,1.95
2023-01-21T12:16:23.836Z,1.97
2023-01-21T12:18:52.559Z,1.99
2023-01-21T12:21:20.563Z,2.02
2023-01-21T12:23:49.668Z,2.03
2023-01-21T12:26:17.489Z,2.01
2023-01-21T12:28:45.439Z,2.00
2023-01-21T12:31:15.511Z,1.99
2023-01-21T12:33:43.470Z,1.98
2023-01-21T12:36:11.473Z,1.97
2023-01-21T12:38:39.466Z,1.96
2023-01-21T12:41:07.398Z,1.94
2023-01-21T12:43:35.744Z,1.94
2023-01-21T12:46:03.757Z,1.93
2023-01-21T12:48:31.633Z,1.92
2023-01-21T12:50:59.780Z,1.92
2023-01-21T12:53:27.711Z,1.91
2023-01-21T12:55:56.450Z,1.90
2023-01-21T12:58:24.519Z,1.89
2023-01-21T13:00:52.449Z,1.90
2023-01-21T13:03:20.381Z,1.88
2023-01-21T13:05:48.302Z,1.86
2023-01-21T13:08:16.907Z,1.83
2023-01-21T13:10:44.817Z,1.83
2023-01-21T13:13:12.826Z,1.84
2023-01-21T13:15:40.839Z,1.84
2023-01-21T13:18:08.611Z,1.82
2023-01-21T13:20:37.413Z,1.83
2023-01-21T13:23:05.359Z,1.85
2023-01-21T13:25:33.359Z,1.87
2023-01-21T13:28:01.341Z,1.88
2023-01-21T13:30:29.182Z,1.89
2023-01-21T13:32:57.952Z,1.91
2023-01-21T13:35:26.402Z,1.92
2023-01-21T13:37:54.215Z,1.93
2023-01-21T13:40:22.115Z,1.94
2023-01-21T13:42:50.250Z,1.94
2023-01-21T13:45:18.715Z,1.94
2023-01-21T13:47:46.525Z,1.92
2023-01-21T13:50:18.098Z,1.94
2023-01-21T13:52:46.495Z,1.94
2023-01-21T13:55:14.484Z,1.98
2023-01-21T13:57:44.398Z,2.00
2023-01-21T14:00:13.086Z,2.04
2023-01-21T14:02:41.087Z,2.09
2023-01-21T14:05:09.047Z,2.13
2023-01-21T14:07:36.851Z,2.15
2023-01-21T14:10:05.465Z,2.17
2023-01-21T14:12:33.527Z,2.19
2023-01-21T14:15:01.385Z,2.23
2023-01-21T14:17:29.274Z,2.23
2023-01-21T14:19:57.914Z,2.20
2023-01-21T14:22:26.489Z,2.19
2023-01-21T14:24:54.471Z,2.19
2023-01-21T14:27:22.476Z,2.18
2023-01-21T14:29:50.438Z,2.18
2023-01-21T14:32:18.497Z,2.18
2023-01-21T14:34:47.071Z,2.17
2023-01-21T14:37:15.053Z,2.17
2023-01-21T14:39:43.348Z,2.15
2023-01-21T14:42:12.090Z,2.12
2023-01-21T14:44:40.011Z,2.07
2023-01-21T14:47:08.515Z,2.06
2023-01-21T14:49:36.630Z,2.00
2023-01-21T14:52:04.549Z,1.98
2023-01-21T14:54:32.493Z,1.95
2023-01-21T14:57:17.320Z,1.95
2023-01-21T14:59:47.294Z,1.92
2023-01-21T15:02:15.776Z,1.90
2023-01-21T15:04:44.050Z,1.88
2023-01-21T15:07:11.974Z,1.87
2023-01-21T15:09:40.037Z,1.86
2023-01-21T15:12:08.865Z,1.85
2023-01-21T15:14:36.798Z,1.83
2023-01-21T15:17:04.904Z,1.82
2023-01-21T15:19:32.712Z,1.82
2023-01-21T15:22:00.612Z,1.80
2023-01-21T15:24:30.401Z,1.80
2023-01-21T15:27:00.211Z,1.79
2023-01-21T15:29:28.816Z,1.77
2023-01-21T15:31:56.858Z,1.74
2023-01-21T15:34:24.735Z,1.73
2023-01-21T15:36:58.049Z,1.70
2023-01-21T15:39:25.966Z,1.69
2023-01-21T15:41:53.852Z,1.67
2023-01-21T15:44:21.959Z,1.66
2023-01-21T15:46:49.899Z,1.65
2023-01-21T15:49:18.761Z,1.62
2023-01-21T15:51:46.772Z,1.60
2023-01-21T15:54:14.718Z,1.59
2023-01-21T15:56:42.798Z,1.58
2023-01-21T15:59:10.808Z,1.56
2023-01-21T16:01:39.215Z,1.50
2023-01-21T16:04:07.062Z,1.46
2023-01-21T16:06:35.372Z,1.39
2023-01-21T16:09:03.259Z,1.35
2023-01-21T16:11:31.204Z,1.30
2023-01-21T16:13:59.851Z,1.27
2023-01-21T16:16:27.730Z,1.22
2023-01-21T16:18:55.653Z,1.18
2023-01-21T16:21:23.645Z,1.15
2023-01-21T16:23:51.516Z,1.12
2023-01-21T16:26:19.837Z,1.09
2023-01-21T16:28:49.479Z,1.06
2023-01-21T16:31:17.494Z,1.03
2023-01-21T16:33:45.452Z,1.02
2023-01-21T16:36:14.608Z,1.00
2023-01-21T16:38:43.228Z,0.98
2023-01-21T16:41:11.056Z,0.95
2023-01-21T16:43:39.566Z,0.92
2023-01-21T16:46:07.455Z,0.91
2023-01-21T16:48:35.581Z,0.90
2023-01-21T16:51:03.949Z,0.90
2023-01-21T16:53:31.967Z,0.88
2023-01-21T16:55:59.926Z,0.86
2023-01-21T16:58:28.151Z,0.86
2023-01-21T17:00:56.094Z,0.88
2023-01-21T17:03:24.641Z,0.89
2023-01-21T17:05:52.685Z,0.89
2023-01-21T17:08:20.725Z,0.88
2023-01-21T17:10:49.097Z,0.87
2023-01-21T17:13:17.139Z,0.88
2023-01-21T17:15:45.803Z,0.86
2023-01-21T17:18:13.808Z,0.83
2023-01-21T17:20:41.772Z,0.81
2023-01-21T17:23:09.628Z,0.81
2023-01-21T17:25:37.667Z,0.80
2023-01-21T17:28:06.582Z,0.80
2023-01-21T17:30:34.632Z,0.78
2023-01-21T17:33:02.979Z,0.76
2023-01-21T17:35:31.066Z,0.74
2023-01-21T17:37:58.936Z,0.73
2023-01-21T17:40:27.687Z,0.71
2023-01-21T17:42:55.628Z,0.70
2023-01-21T17:45:23.443Z,0.68
2023-01-21T17:48:08.011Z,0.67
2023-01-21T17:50:37.498Z,0.64
2023-01-21T17:53:05.369Z,0.64
2023-01-21T17:55:33.254Z,0.65
2023-01-21T17:58:04.967Z,0.65
2023-01-21T18:00:32.699Z,0.65
2023-01-21T18:03:00.983Z,0.66
2023-01-21T18:05:29.119Z,0.64
2023-01-21T18:07:56.966Z,0.64
2023-01-21T18:10:24.830Z,0.62
2023-01-21T18:12:54.661Z,0.62
2023-01-21T18:15:24.417Z,0.64
2023-01-21T18:17:52.221Z,0.63
2023-01-21T18:20:20.126Z,0.65
2023-01-21T18:22:48.017Z,0.70
2023-01-21T18:25:16.030Z,0.74
2023-01-21T18:27:45.852Z,0.79
2023-01-21T18:30:13.681Z,0.83
2023-01-21T18:32:42.795Z,0.87
2023-01-21T18:35:11.042Z,0.90
2023-01-21T18:37:39.373Z,0.94
2023-01-21T18:40:08.100Z,0.96
2023-01-21T18:42:36.167Z,0.98
2023-01-21T18:45:04.086Z,1.01
2023-01-21T18:47:31.987Z,1.03
2023-01-21T18:50:03.473Z,1.04
2023-01-21T18:52:31.851Z,1.07
2023-01-21T18:54:59.735Z,1.09
2023-01-21T18:57:27.738Z,1.10
2023-01-21T18:59:56.045Z,1.12
2023-01-21T19:02:23.898Z,1.13
2023-01-21T19:04:52.594Z,1.14
2023-01-21T19:07:20.481Z,1.15
2023-01-21T19:09:50.199Z,1.17
2023-01-21T19:12:18.945Z,1.18
2023-01-21T19:14:46.775Z,1.18
2023-01-21T19:17:15.803Z,1.18
2023-01-21T19:19:44.108Z,1.18
2023-01-21T19:22:12.079Z,1.19
2023-01-21T19:24:40.031Z,1.19
2023-01-21T19:27:08.243Z,1.21
2023-01-21T19:29:36.910Z,1.22
2023-01-21T19:32:04.837Z,1.22
2023-01-21T19:34:33.017Z,1.22
2023-01-21T19:37:01.063Z,1.23
2023-01-21T19:39:33.069Z,1.25
2023-01-21T19:42:08.258Z,1.26
2023-01-21T19:44:36.589Z,1.26
2023-01-21T19:47:04.583Z,1.29
2023-01-21T19:49:32.586Z,1.29
2023-01-21T19:52:00.547Z,1.31
2023-01-21T19:54:28.538Z,1.33
2023-01-21T19:56:56.441Z,1.33
2023-01-21T19:59:24.329Z,1.34
2023-01-21T20:01:52.428Z,1.34
2023-01-21T20:04:20.696Z,1.36
2023-01-21T20:06:49.063Z,1.36
2023-01-21T20:09:19.419Z,1.38
2023-01-21T20:11:47.233Z,1.39
2023-01-21T20:14:15.086Z,1.39
2023-01-21T20:16:43.218Z,1.40
2023-01-21T20:19:11.463Z,1.40
2023-01-21T20:21:54.667Z,1.39
2023-01-21T20:24:30.656Z,1.40
2023-01-21T20:26:58.623Z,1.43
2023-01-21T20:29:27.482Z,1.41
2023-01-21T20:31:55.428Z,1.42
2023-01-21T20:34:23.364Z,1.41
2023-01-21T20:36:51.987Z,1.42
2023-01-21T20:39:19.941Z,1.41
2023-01-21T20:41:48.803Z,1.42
2023-01-21T20:44:16.688Z,1.44
2023-01-21T20:46:46.319Z,1.42
2023-01-21T20:49:14.259Z,1.41
2023-01-21T20:51:42.135Z,1.42
2023-01-21T20:54:11.113Z,1.43
2023-01-21T20:56:38.943Z,1.44
2023-01-21T20:59:06.998Z,1.44
2023-01-21T21:01:37.220Z,1.44
2023-01-21T21:04:05.202Z,1.46
2023-01-21T21:06:33.812Z,1.47
2023-01-21T21:09:02.310Z,1.46
2023-01-21T21:11:30.088Z,1.47
2023-01-21T21:13:58.877Z,1.49
2023-01-21T21:16:28.164Z,1.49
2023-01-21T21:18:57.515Z,1.48
2023-01-21T21:21:25.435Z,1.47
2023-01-21T21:23:53.616Z,1.46
2023-01-21T21:26:22.400Z,1.43
2023-01-21T21:28:50.374Z,1.40
2023-01-21T21:31:20.977Z,1.38
2023-01-21T21:33:48.978Z,1.38
2023-01-21T21:36:16.940Z,1.40
2023-01-21T21:38:44.904Z,1.42
2023-01-21T21:41:26.974Z,1.42
2023-01-21T21:43:54.851Z,1.44
2023-01-21T21:46:40.104Z,1.47
2023-01-21T21:49:08.197Z,1.49
2023-01-21T21:51:38.264Z,1.51
2023-01-21T21:54:08.044Z,1.52
2023-01-21T21:56:36.027Z,1.54
2023-01-21T21:59:03.924Z,1.55
2023-01-21T22:01:32.510Z,1.57
2023-01-21T22:04:00.779Z,1.57
2023-01-21T22:06:28.934Z,1.57
2023-01-21T22:08:57.419Z,1.58
2023-01-21T22:11:25.487Z,1.59
2023-01-21T22:13:53.823Z,1.59
2023-01-21T22:16:22.043Z,1.59
2023-01-21T22:18:50.398Z,1.60
2023-01-21T22:21:18.412Z,1.60
2023-01-21T22:23:46.353Z,1.60
2023-01-21T22:26:14.610Z,1.60
2023-01-21T22:28:43.109Z,1.59
2023-01-21T22:31:11.392Z,1.59
2023-01-21T22:33:39.457Z,1.59
2023-01-21T22:36:07.881Z,1.59
2023-01-21T22:38:35.968Z,1.59
2023-01-21T22:41:04.062Z,1.58
2023-01-21T22:43:32.076Z,1.57
2023-01-21T22:46:00.099Z,1.58
2023-01-21T22:48:28.083Z,1.58
2023-01-21T22:50:56.025Z,1.57
2023-01-21T22:53:24.445Z,1.55
2023-01-21T22:55:52.611Z,1.54
2023-01-21T22:58:20.829Z,1.54
2023-01-21T23:00:48.719Z,1.52
2023-01-21T23:03:16.837Z,1.51
2023-01-21T23:05:45.267Z,1.50
2023-01-21T23:08:13.379Z,1.48
2023-01-21T23:10:42.860Z,1.48
2023-01-21T23:13:10.930Z,1.46
2023-01-21T23:15:38.808Z,1.45
2023-01-21T23:18:07.186Z,1.41
2023-01-21T23:20:35.293Z,1.40
2023-01-21T23:23:03.053Z,1.39
2023-01-21T23:25:31.002Z,1.39
2023-01-21T23:27:59.054Z,1.38
2023-01-21T23:30:29.575Z,1.39
2023-01-21T23:32:57.728Z,1.38
2023-01-21T23:35:30.862Z,1.37
2023-01-21T23:37:59.036Z,1.37
2023-01-21T23:40:27.382Z,1.38
2023-01-21T23:42:55.939Z,1.39
2023-01-21T23:45:23.918Z,1.41
2023-01-21T23:47:51.766Z,1.41
2023-01-21T23:50:19.808Z,1.40
2023-01-21T23:52:47.959Z,1.41
2023-01-21T23:55:16.332Z,1.39
2023-01-21T23:57:44.292Z,1.38
